Scotland, Georgia
Current Conditions -  °F | °C
As of 8:55 AM on Sunday 25 Jan 2015 (Local Time) from KAZE Reporting Station
Clear Clear  
Wind Chill: 40°   Ceiling: Unl
Heat Index: 40°   Visibility: 10mi
Dew Point: 37°   Wind: 3mph
Humidity: 89%   Direction: 240°WSW
Pressure: 30.03"   Gusts: NA
Location:  32.05°N, 82.82°W
Report Text: KAZE 251355Z AUTO 24003KT 10SM CLR 05/03 A3003 RMK AO2 T00470030
Loading
Personal Weather Stations






























Interactive Weather Map New forecast layout! Learn more

10-Day Weather Forecast

Advertisements
Track Severe Weather on mobile